createdAt,value
2022-09-22T00:01:33.554Z,4.63
2022-09-22T00:04:07.274Z,4.67
2022-09-22T00:06:39.765Z,5.35
2022-09-22T00:09:12.041Z,6.00
2022-09-22T00:11:58.004Z,3.80
2022-09-22T00:14:28.309Z,6.10
2022-09-22T00:17:01.165Z,4.60
2022-09-22T00:19:35.079Z,4.83
2022-09-22T00:24:32.306Z,5.13
2022-09-22T00:27:00.489Z,3.90
2022-09-22T00:29:30.263Z,5.77
2022-09-22T00:31:59.612Z,4.40
2022-09-22T00:34:30.164Z,4.60
2022-09-22T00:36:57.867Z,5.80
2022-09-22T00:39:27.266Z,4.87
2022-09-22T00:41:55.061Z,3.67
2022-09-22T00:44:34.084Z,3.43
2022-09-22T00:47:36.536Z,4.70
2022-09-22T00:50:18.361Z,8.83
2022-09-22T00:53:10.952Z,4.13
2022-09-22T00:55:52.524Z,4.73
2022-09-22T00:58:41.132Z,5.00
2022-09-22T01:01:09.564Z,7.30
2022-09-22T01:03:39.285Z,6.60
2022-09-22T01:06:11.343Z,4.13
2022-09-22T01:08:40.386Z,4.50
2022-09-22T01:11:08.584Z,6.17
2022-09-22T01:13:42.078Z,5.27
2022-09-22T01:16:36.570Z,5.07
2022-09-22T01:19:49.548Z,4.75
2022-09-22T01:22:36.511Z,3.80
2022-09-22T01:25:42.328Z,4.87
2022-09-22T01:29:07.432Z,4.87
2022-09-22T01:31:50.717Z,6.35
2022-09-22T01:34:38.212Z,6.07
2022-09-22T01:37:37.341Z,6.93
2022-09-22T01:40:17.436Z,4.57
2022-09-22T01:42:58.993Z,4.57
2022-09-22T01:45:31.111Z,4.10
2022-09-22T01:48:30.897Z,5.63
2022-09-22T01:51:04.492Z,5.30
2022-09-22T01:53:42.903Z,8.60
2022-09-22T01:56:14.192Z,5.20
2022-09-22T01:58:58.110Z,4.70
2022-09-22T02:01:52.220Z,4.15
2022-09-22T02:04:36.261Z,4.72
2022-09-22T02:07:14.331Z,5.30
2022-09-22T02:09:43.755Z,5.03
2022-09-22T02:12:11.562Z,5.07
2022-09-22T02:14:39.430Z,6.67
2022-09-22T02:17:08.954Z,5.00
2022-09-22T02:19:39.978Z,6.87
2022-09-22T02:22:10.535Z,6.33
2022-09-22T02:24:44.762Z,5.07
2022-09-22T02:27:26.907Z,5.87
2022-09-22T02:30:04.270Z,5.53
2022-09-22T02:32:34.210Z,6.10
2022-09-22T02:35:02.342Z,5.40
2022-09-22T02:37:58.090Z,4.50
2022-09-22T02:40:30.940Z,4.57
2022-09-22T02:42:58.578Z,5.70
2022-09-22T02:45:33.071Z,5.00
2022-09-22T02:48:18.408Z,8.70
2022-09-22T02:50:46.160Z,5.50
2022-09-22T02:53:17.313Z,5.30
2022-09-22T02:55:46.156Z,6.00
2022-09-22T02:58:17.276Z,5.77
2022-09-22T03:00:45.612Z,5.27
2022-09-22T03:03:13.468Z,10.83
2022-09-22T03:05:41.243Z,4.50
2022-09-22T03:08:09.124Z,6.10
2022-09-22T03:10:36.955Z,6.00
2022-09-22T03:13:20.221Z,7.53
2022-09-22T03:15:49.075Z,5.20
2022-09-22T03:18:17.239Z,6.63
2022-09-22T03:20:45.713Z,5.70
2022-09-22T03:23:13.476Z,5.70
2022-09-22T03:25:41.233Z,6.93
2022-09-22T03:28:09.189Z,5.83
2022-09-22T03:30:37.402Z,5.43
2022-09-22T03:33:05.178Z,5.53
2022-09-22T03:35:32.943Z,7.40
2022-09-22T03:38:00.699Z,6.43
2022-09-22T03:40:28.560Z,7.47
2022-09-22T03:42:56.386Z,7.13
2022-09-22T03:45:24.945Z,7.57
2022-09-22T03:47:54.064Z,7.63
2022-09-22T03:50:21.935Z,8.40
2022-09-22T03:52:49.849Z,5.63
2022-09-22T03:55:17.649Z,8.10
2022-09-22T03:57:45.582Z,5.47
2022-09-22T04:00:14.196Z,6.80
2022-09-22T04:02:42.075Z,5.33
2022-09-22T04:05:11.168Z,6.13
2022-09-22T04:07:39.079Z,7.90
2022-09-22T04:10:07.820Z,5.83
2022-09-22T04:12:37.238Z,5.07
2022-09-22T04:15:06.310Z,5.07
2022-09-22T04:17:34.054Z,6.07
2022-09-22T04:20:02.234Z,8.00
2022-09-22T04:22:30.062Z,8.27
2022-09-22T04:24:57.885Z,8.57
2022-09-22T04:27:25.858Z,5.33
2022-09-22T04:29:53.827Z,6.10
2022-09-22T04:32:21.607Z,5.27
2022-09-22T04:34:49.793Z,5.63
2022-09-22T04:37:17.601Z,7.23
2022-09-22T04:39:45.347Z,7.43
2022-09-22T04:42:13.096Z,4.60
2022-09-22T04:44:40.885Z,8.57
2022-09-22T04:47:08.680Z,5.53
2022-09-22T04:49:36.446Z,5.97
2022-09-22T04:52:04.514Z,5.63
2022-09-22T04:54:32.561Z,5.70
2022-09-22T04:57:00.986Z,6.10
2022-09-22T04:59:29.762Z,7.37
2022-09-22T05:01:57.540Z,7.43
2022-09-22T05:04:26.108Z,6.70
2022-09-22T05:06:53.827Z,8.97
2022-09-22T05:09:21.877Z,7.27
2022-09-22T05:11:49.570Z,8.20
2022-09-22T05:14:21.580Z,7.73
2022-09-22T05:16:52.406Z,7.37
2022-09-22T05:19:21.115Z,9.77
2022-09-22T05:21:48.842Z,8.03
2022-09-22T05:24:16.583Z,8.20
2022-09-22T05:26:44.295Z,7.80
2022-09-22T05:29:12.095Z,11.20
2022-09-22T05:31:39.941Z,9.03
2022-09-22T05:34:07.748Z,6.80
2022-09-22T05:36:35.442Z,5.37
2022-09-22T05:39:03.260Z,8.73
2022-09-22T05:41:31.065Z,7.53
2022-09-22T05:43:58.796Z,5.70
2022-09-22T05:46:26.516Z,6.83
2022-09-22T05:48:54.270Z,7.23
2022-09-22T05:51:21.983Z,6.77
2022-09-22T05:53:49.794Z,7.50
2022-09-22T05:56:17.510Z,9.13
2022-09-22T05:58:47.865Z,7.07
2022-09-22T06:01:15.826Z,6.70
2022-09-22T06:03:43.632Z,6.90
2022-09-22T06:06:11.374Z,9.40
2022-09-22T06:08:39.151Z,7.77
2022-09-22T06:11:07.316Z,8.93
2022-09-22T06:13:35.825Z,5.57
2022-09-22T06:16:04.485Z,7.77
2022-09-22T06:18:33.910Z,9.10
2022-09-22T06:21:01.632Z,7.33
2022-09-22T06:23:29.469Z,5.77
2022-09-22T06:25:58.951Z,4.87
2022-09-22T06:28:26.953Z,4.93
2022-09-22T06:31:00.588Z,8.50
2022-09-22T06:33:29.259Z,5.72
2022-09-22T06:36:01.736Z,5.77
2022-09-22T06:38:32.024Z,6.73
2022-09-22T06:41:02.891Z,6.70
2022-09-22T06:43:31.073Z,5.93
2022-09-22T06:46:00.400Z,5.60
2022-09-22T06:48:28.233Z,7.07
2022-09-22T06:50:55.971Z,5.83
2022-09-22T06:53:27.241Z,4.67
2022-09-22T06:55:55.543Z,5.00
2022-09-22T06:58:23.336Z,6.30
2022-09-22T07:00:51.306Z,6.77
2022-09-22T07:03:22.894Z,5.90
2022-09-22T07:05:54.612Z,6.00
2022-09-22T07:08:24.404Z,6.67
2022-09-22T07:10:54.954Z,6.87
2022-09-22T07:13:29.718Z,6.20
2022-09-22T07:16:02.386Z,6.93
2022-09-22T07:18:30.925Z,8.13
2022-09-22T07:21:10.401Z,6.13
2022-09-22T07:23:39.196Z,5.43
2022-09-22T07:26:12.155Z,6.40
2022-09-22T07:28:40.696Z,8.83
2022-09-22T07:31:12.691Z,5.77
2022-09-22T07:33:43.423Z,9.07
2022-09-22T07:36:23.141Z,9.27
2022-09-22T07:38:53.819Z,8.40
2022-09-22T07:41:29.603Z,7.40
2022-09-22T07:44:19.416Z,6.70
2022-09-22T07:46:47.240Z,11.10
2022-09-22T07:49:15.344Z,8.20
2022-09-22T07:51:43.811Z,10.90
2022-09-22T07:54:11.959Z,7.43
2022-09-22T07:56:45.044Z,7.43
2022-09-22T07:59:16.743Z,7.15
2022-09-22T08:01:48.937Z,7.27
2022-09-22T08:04:41.351Z,6.13
2022-09-22T08:07:09.285Z,8.97
2022-09-22T08:09:37.195Z,5.27
2022-09-22T08:12:05.277Z,6.00
2022-09-22T08:14:32.990Z,5.10
2022-09-22T08:17:00.733Z,6.27
2022-09-22T08:19:30.186Z,5.10
2022-09-22T08:21:58.660Z,5.23
2022-09-22T08:24:26.401Z,4.47
2022-09-22T08:26:56.050Z,8.20
2022-09-22T08:29:24.588Z,5.33
2022-09-22T08:31:52.625Z,7.27
2022-09-22T08:34:22.517Z,8.20
2022-09-22T08:36:50.364Z,6.37
2022-09-22T08:39:18.911Z,6.53
2022-09-22T08:42:05.948Z,6.40
2022-09-22T08:44:59.901Z,6.07
2022-09-22T08:48:04.907Z,6.40
2022-09-22T08:51:11.792Z,6.63
2022-09-22T08:53:50.473Z,7.53
2022-09-22T08:56:48.511Z,6.93
2022-09-22T08:59:30.415Z,6.00
2022-09-22T09:02:30.072Z,4.97
2022-09-22T09:05:39.187Z,7.23
2022-09-22T09:08:23.057Z,4.77
2022-09-22T09:11:16.332Z,5.40
2022-09-22T09:14:26.753Z,6.40
2022-09-22T09:17:03.914Z,4.63
2022-09-22T09:20:12.495Z,6.28
2022-09-22T09:22:48.462Z,5.40
2022-09-22T09:25:42.068Z,3.97
2022-09-22T09:28:26.913Z,4.60
2022-09-22T09:31:14.199Z,4.50
2022-09-22T09:34:06.147Z,2.63
2022-09-22T09:36:42.031Z,5.73
2022-09-22T09:39:46.137Z,3.30
2022-09-22T09:42:33.260Z,4.72
2022-09-22T09:45:02.892Z,3.53
2022-09-22T09:47:59.661Z,4.53
2022-09-22T09:50:32.205Z,4.32
2022-09-22T09:53:00.499Z,7.47
2022-09-22T09:55:28.249Z,3.88
2022-09-22T09:58:11.428Z,4.07
2022-09-22T10:00:59.509Z,4.70
2022-09-22T10:03:32.853Z,5.28
2022-09-22T10:06:10.219Z,4.47
2022-09-22T10:08:51.563Z,4.47
2022-09-22T10:11:32.753Z,4.13
2022-09-22T10:14:00.796Z,4.00
2022-09-22T10:16:31.613Z,4.10
2022-09-22T10:18:59.425Z,3.78
2022-09-22T10:21:28.308Z,5.80
2022-09-22T10:23:59.538Z,4.35
2022-09-22T10:26:32.281Z,4.55
2022-09-22T10:29:21.088Z,3.25
2022-09-22T10:32:03.429Z,4.03
2022-09-22T10:34:36.872Z,3.20
2022-09-22T10:37:10.519Z,2.15
2022-09-22T10:39:49.907Z,1.65
2022-09-22T10:42:45.444Z,2.05
2022-09-22T10:45:19.451Z,2.80
2022-09-22T10:48:15.614Z,5.32
2022-09-22T10:50:49.372Z,2.80
2022-09-22T10:56:51.792Z,2.83
2022-09-22T10:59:33.454Z,2.75
2022-09-22T11:02:39.438Z,2.33
2022-09-22T11:05:50.213Z,2.42
2022-09-22T11:08:39.174Z,4.30
2022-09-22T11:11:46.403Z,4.00
2022-09-22T11:14:55.017Z,2.75
2022-09-22T11:17:53.218Z,3.83
2022-09-22T11:20:41.867Z,2.10
2022-09-22T11:23:40.422Z,1.67
2022-09-22T11:26:44.991Z,4.07
2022-09-22T11:29:48.655Z,2.03
2022-09-22T11:32:49.727Z,2.67
2022-09-22T11:35:50.709Z,4.70
2022-09-22T11:38:55.722Z,3.33
2022-09-22T11:42:02.034Z,3.42
2022-09-22T11:44:42.226Z,3.53
2022-09-22T11:47:28.458Z,2.92
2022-09-22T11:50:35.703Z,2.20
2022-09-22T11:53:44.135Z,2.10
2022-09-22T11:56:55.577Z,2.55
2022-09-22T11:59:57.394Z,1.45
2022-09-22T12:02:54.482Z,2.53
2022-09-22T12:05:49.083Z,2.80
2022-09-22T12:08:23.137Z,1.95
2022-09-22T12:10:52.780Z,1.33
2022-09-22T12:13:28.129Z,1.67
2022-09-22T12:16:18.717Z,1.55
2022-09-22T12:19:03.267Z,2.42
2022-09-22T12:21:30.915Z,1.88
2022-09-22T12:24:07.869Z,1.85
2022-09-22T12:26:43.179Z,2.03
2022-09-22T12:29:23.602Z,1.27
2022-09-22T12:31:55.666Z,2.65
2022-09-22T12:34:34.167Z,2.35
2022-09-22T12:37:46.422Z,4.47
2022-09-22T12:40:14.075Z,1.38
2022-09-22T12:42:46.330Z,1.65
2022-09-22T12:45:20.942Z,2.35
2022-09-22T12:47:52.532Z,2.67
2022-09-22T12:50:40.578Z,1.45
2022-09-22T12:53:26.055Z,1.25
2022-09-22T12:55:56.687Z,1.48
2022-09-22T12:58:30.118Z,1.42
2022-09-22T13:01:28.950Z,1.17
2022-09-22T13:04:12.031Z,2.10
2022-09-22T13:06:39.685Z,1.50
2022-09-22T13:09:17.310Z,3.13
2022-09-22T13:12:14.667Z,2.03
2022-09-22T13:15:17.528Z,2.15
2022-09-22T13:17:51.116Z,1.17
2022-09-22T13:22:55.692Z,1.00
2022-09-22T13:25:28.281Z,1.77
2022-09-22T13:28:20.154Z,1.47
2022-09-22T13:31:22.462Z,1.80
2022-09-22T13:33:53.521Z,3.88
2022-09-22T13:36:26.945Z,2.17
2022-09-22T13:39:03.384Z,1.60
2022-09-22T13:41:45.906Z,1.83
2022-09-22T13:44:30.606Z,1.27
2022-09-22T13:47:09.631Z,1.67
2022-09-22T13:49:48.881Z,2.03
2022-09-22T13:52:38.916Z,2.08
2022-09-22T13:55:26.289Z,1.75
2022-09-22T13:58:02.570Z,1.77
2022-09-22T14:01:11.509Z,1.60
2022-09-22T14:03:39.503Z,2.45
2022-09-22T14:06:53.879Z,1.45
2022-09-22T14:09:26.364Z,2.25
2022-09-22T14:11:56.502Z,3.70
2022-09-22T14:14:27.443Z,1.27
2022-09-22T14:17:05.983Z,2.13
2022-09-22T14:20:06.241Z,3.83
2022-09-22T14:22:43.029Z,4.95
2022-09-22T14:25:20.193Z,3.17
2022-09-22T14:27:57.910Z,2.10
2022-09-22T14:30:31.174Z,1.70
2022-09-22T14:33:03.425Z,0.95
2022-09-22T14:35:37.318Z,1.80
2022-09-22T14:38:15.526Z,2.03
2022-09-22T14:40:58.414Z,3.13
2022-09-22T14:43:42.333Z,2.28
2022-09-22T14:46:41.803Z,1.40
2022-09-22T14:49:37.535Z,2.03
2022-09-22T14:52:15.017Z,2.33
2022-09-22T14:54:44.665Z,3.15
2022-09-22T14:57:16.729Z,3.35
2022-09-22T15:00:11.958Z,2.25
2022-09-22T15:02:44.552Z,1.02
2022-09-22T15:05:30.347Z,1.93
2022-09-22T15:07:58.874Z,1.90
2022-09-22T15:10:32.345Z,3.10
2022-09-22T15:15:59.594Z,1.83
2022-09-22T15:18:30.805Z,2.45
2022-09-22T15:21:11.196Z,3.00
2022-09-22T15:23:47.060Z,1.17
2022-09-22T15:26:24.914Z,2.42
2022-09-22T15:28:56.120Z,2.53
2022-09-22T15:31:28.457Z,1.58
2022-09-22T15:34:01.293Z,2.22
2022-09-22T15:36:32.894Z,1.88
2022-09-22T15:39:21.948Z,1.52
2022-09-22T15:41:51.990Z,1.67
2022-09-22T15:44:20.630Z,2.97
2022-09-22T15:46:52.478Z,2.22
2022-09-22T15:49:25.025Z,6.60
2022-09-22T15:51:56.006Z,3.50
2022-09-22T15:54:26.243Z,1.48
2022-09-22T15:56:56.538Z,1.33
2022-09-22T15:59:28.623Z,2.05
2022-09-22T16:01:57.497Z,1.17
2022-09-22T16:04:35.524Z,3.88
2022-09-22T16:07:12.426Z,2.33
2022-09-22T16:09:40.262Z,1.40
2022-09-22T16:12:11.086Z,1.25
2022-09-22T16:14:41.041Z,3.22
2022-09-22T16:17:08.814Z,1.55
2022-09-22T16:19:36.570Z,1.63
2022-09-22T16:22:05.916Z,1.45
2022-09-22T16:24:33.750Z,1.38
2022-09-22T16:27:04.196Z,5.10
2022-09-22T16:29:33.581Z,3.00
2022-09-22T16:32:01.556Z,3.03
2022-09-22T16:34:29.423Z,3.08
2022-09-22T16:36:57.340Z,1.67
2022-09-22T16:39:25.159Z,5.00
2022-09-22T16:41:52.853Z,3.38
2022-09-22T16:44:22.113Z,4.10
2022-09-22T16:46:49.882Z,1.50
2022-09-22T16:49:20.068Z,2.22
2022-09-22T16:51:50.542Z,2.85
2022-09-22T16:54:19.546Z,2.53
2022-09-22T16:56:50.545Z,2.22
2022-09-22T16:59:23.382Z,3.50
2022-09-22T17:01:51.426Z,3.05
2022-09-22T17:04:19.873Z,1.83
2022-09-22T17:06:48.633Z,1.55
2022-09-22T17:09:18.084Z,2.65
2022-09-22T17:11:48.690Z,1.98
2022-09-22T17:14:22.180Z,2.05
2022-09-22T17:16:55.375Z,2.17
2022-09-22T17:19:26.582Z,1.67
2022-09-22T17:21:56.603Z,2.35
2022-09-22T17:24:26.985Z,1.90
2022-09-22T17:26:58.251Z,1.55
2022-09-22T17:29:32.804Z,1.77
2022-09-22T17:32:04.398Z,3.47
2022-09-22T17:34:34.370Z,3.22
2022-09-22T17:37:03.804Z,1.88
2022-09-22T17:39:32.313Z,1.35
2022-09-22T17:42:00.178Z,1.85
2022-09-22T17:44:29.139Z,1.33
2022-09-22T17:47:15.605Z,2.50
2022-09-22T17:50:02.059Z,3.03
2022-09-22T17:52:48.685Z,2.95
2022-09-22T17:55:22.529Z,1.63
2022-09-22T17:57:52.641Z,2.58
2022-09-22T18:00:23.061Z,3.20
2022-09-22T18:02:54.286Z,4.40
2022-09-22T18:05:26.783Z,2.50
2022-09-22T18:07:58.569Z,3.72
2022-09-22T18:10:31.062Z,3.38
2022-09-22T18:12:59.770Z,1.67
2022-09-22T18:15:28.088Z,4.57
2022-09-22T18:17:58.201Z,2.30
2022-09-22T18:20:27.768Z,3.38
2022-09-22T18:22:56.079Z,3.80
2022-09-22T18:25:25.703Z,5.97
2022-09-22T18:27:55.114Z,2.72
2022-09-22T18:30:23.137Z,3.13
2022-09-22T18:32:50.978Z,2.50
2022-09-22T18:35:18.791Z,2.17
2022-09-22T18:37:46.506Z,2.53
2022-09-22T18:40:16.218Z,3.25
2022-09-22T18:42:44.598Z,5.95
2022-09-22T18:45:14.238Z,5.40
2022-09-22T18:47:43.495Z,3.63
2022-09-22T18:50:12.749Z,3.97
2022-09-22T18:52:43.201Z,4.55
2022-09-22T18:55:14.171Z,3.47
2022-09-22T18:57:42.840Z,2.72
2022-09-22T19:00:13.832Z,2.75
2022-09-22T19:02:41.837Z,4.30
2022-09-22T19:05:09.785Z,2.83
2022-09-22T19:07:41.551Z,2.40
2022-09-22T19:10:13.935Z,3.00
2022-09-22T19:12:42.806Z,3.17
2022-09-22T19:15:15.446Z,2.67
2022-09-22T19:17:45.861Z,3.75
2022-09-22T19:20:21.298Z,3.45
2022-09-22T19:22:50.534Z,2.63
2022-09-22T19:25:21.458Z,2.90
2022-09-22T19:27:52.511Z,4.13
2022-09-22T19:30:24.876Z,8.70
2022-09-22T19:32:55.512Z,6.90
2022-09-22T19:35:23.922Z,3.30
2022-09-22T19:37:52.483Z,3.25
2022-09-22T19:40:24.434Z,5.40
2022-09-22T19:42:53.268Z,3.92
2022-09-22T19:45:21.995Z,4.05
2022-09-22T19:47:49.796Z,4.00
2022-09-22T19:50:18.230Z,5.57
2022-09-22T19:52:46.130Z,6.10
2022-09-22T19:55:16.916Z,5.15
2022-09-22T19:57:46.952Z,5.43
2022-09-22T20:00:26.282Z,6.15
2022-09-22T20:02:58.771Z,8.00
2022-09-22T20:05:34.741Z,8.30
2022-09-22T20:08:07.064Z,6.53
2022-09-22T20:10:35.528Z,4.15
2022-09-22T20:13:23.336Z,3.78
2022-09-22T20:15:51.093Z,2.90
2022-09-22T20:18:22.266Z,3.47
2022-09-22T20:20:51.527Z,3.65
2022-09-22T20:23:21.690Z,3.10
2022-09-22T20:25:51.507Z,3.17
2022-09-22T20:28:19.332Z,3.95
2022-09-22T20:30:47.197Z,5.30
2022-09-22T20:33:21.552Z,3.80
2022-09-22T20:35:52.282Z,3.95
2022-09-22T20:38:20.018Z,3.22
2022-09-22T20:40:48.604Z,2.95
2022-09-22T20:43:16.657Z,4.57
2022-09-22T20:45:44.967Z,3.15
2022-09-22T20:48:18.689Z,3.28
2022-09-22T20:53:27.238Z,3.65
2022-09-22T20:56:06.659Z,6.45
2022-09-22T20:58:40.703Z,5.10
2022-09-22T21:01:10.911Z,3.85
2022-09-22T21:03:39.315Z,4.07
2022-09-22T21:06:10.606Z,3.03
2022-09-22T21:09:01.763Z,4.60
2022-09-22T21:11:30.771Z,6.43
2022-09-22T21:14:05.773Z,5.57
2022-09-22T21:16:36.357Z,4.65
2022-09-22T21:19:04.762Z,3.63
2022-09-22T21:21:36.633Z,5.25
2022-09-22T21:24:05.543Z,3.28
2022-09-22T21:26:34.075Z,3.30
2022-09-22T21:29:01.858Z,4.10
2022-09-22T21:31:29.800Z,3.20
2022-09-22T21:33:57.620Z,4.80
2022-09-22T21:36:25.500Z,3.20
2022-09-22T21:38:59.227Z,3.25
2022-09-22T21:41:30.301Z,4.55
2022-09-22T21:43:58.265Z,4.13
2022-09-22T21:46:29.795Z,2.50
2022-09-22T21:49:01.832Z,3.38
2022-09-22T21:51:41.321Z,3.17
2022-09-22T21:54:14.176Z,4.45
2022-09-22T21:56:42.373Z,3.67
2022-09-22T21:59:12.429Z,2.45
2022-09-22T22:01:42.231Z,4.25
2022-09-22T22:04:13.874Z,3.78
2022-09-22T22:06:44.459Z,3.28
2022-09-22T22:09:24.009Z,3.33
2022-09-22T22:11:56.620Z,3.38
2022-09-22T22:14:32.643Z,2.97
2022-09-22T22:17:02.348Z,4.28
2022-09-22T22:19:30.394Z,4.72
2022-09-22T22:21:58.160Z,3.90
2022-09-22T22:24:26.015Z,3.25
2022-09-22T22:27:09.978Z,4.55
2022-09-22T22:32:10.725Z,4.60
2022-09-22T22:34:38.721Z,4.68
2022-09-22T22:37:09.627Z,5.10
2022-09-22T22:39:38.014Z,4.65
2022-09-22T22:42:07.021Z,5.45
2022-09-22T22:44:35.339Z,5.68
2022-09-22T22:47:03.316Z,4.43
2022-09-22T22:49:31.373Z,3.80
2022-09-22T22:51:59.155Z,3.30
2022-09-22T22:54:26.880Z,4.35
2022-09-22T22:56:54.585Z,3.97
2022-09-22T22:59:22.345Z,4.78
2022-09-22T23:01:50.156Z,7.03
2022-09-22T23:04:17.944Z,4.90
2022-09-22T23:06:47.767Z,3.33
2022-09-22T23:09:17.248Z,6.60
2022-09-22T23:11:46.419Z,5.45
2022-09-22T23:14:16.341Z,3.25
2022-09-22T23:16:47.031Z,6.80
2022-09-22T23:19:17.673Z,4.50
2022-09-22T23:21:46.563Z,3.93
2022-09-22T23:24:16.941Z,6.40
2022-09-22T23:26:46.246Z,4.15
2022-09-22T23:29:14.458Z,3.72
2022-09-22T23:31:42.712Z,5.38
2022-09-22T23:34:10.530Z,3.78
2022-09-22T23:36:39.586Z,4.30
2022-09-22T23:39:07.619Z,4.20
2022-09-22T23:41:37.070Z,6.47
2022-09-22T23:44:12.245Z,5.60
2022-09-22T23:46:39.966Z,4.20
2022-09-22T23:49:07.936Z,6.40
2022-09-22T23:51:35.678Z,5.13
2022-09-22T23:54:03.476Z,6.10
2022-09-22T23:56:31.238Z,5.17
2022-09-22T23:58:58.964Z,3.50
